createdAt,value
2023-04-13T00:01:09.227Z,9.70
2023-04-13T00:03:37.940Z,9.50
2023-04-13T00:06:10.942Z,9.50
2023-04-13T00:08:42.911Z,9.70
2023-04-13T00:11:11.522Z,9.40
2023-04-13T00:13:43.090Z,9.40
2023-04-13T00:16:14.134Z,9.50
2023-04-13T00:18:42.533Z,9.80
2023-04-13T00:21:11.002Z,9.60
2023-04-13T00:23:39.577Z,9.40
2023-04-13T00:26:08.654Z,9.80
2023-04-13T00:28:37.014Z,9.80
2023-04-13T00:31:05.596Z,9.60
2023-04-13T00:33:35.386Z,9.70
2023-04-13T00:36:04.368Z,9.50
2023-04-13T00:38:33.005Z,9.40
2023-04-13T00:41:02.242Z,9.40
2023-04-13T00:43:30.646Z,9.40
2023-04-13T00:46:00.261Z,9.50
2023-04-13T00:48:28.839Z,9.40
2023-04-13T00:50:58.923Z,9.40
2023-04-13T00:53:27.827Z,9.50
2023-04-13T00:55:57.162Z,9.40
2023-04-13T00:58:26.691Z,9.40
2023-04-13T01:00:55.171Z,9.20
2023-04-13T01:03:23.687Z,9.50
2023-04-13T01:06:08.515Z,9.50
2023-04-13T01:08:39.726Z,9.20
2023-04-13T01:11:15.566Z,9.20
2023-04-13T01:13:48.168Z,9.20
2023-04-13T01:16:20.986Z,9.20
2023-04-13T01:18:52.576Z,9.60
2023-04-13T01:21:26.105Z,9.40
2023-04-13T01:24:04.899Z,9.40
2023-04-13T01:26:42.270Z,9.30
2023-04-13T01:29:12.245Z,9.20
2023-04-13T01:31:40.679Z,9.20
2023-04-13T01:34:09.790Z,9.40
2023-04-13T01:36:40.582Z,9.50
2023-04-13T01:39:10.616Z,9.40
2023-04-13T01:41:39.298Z,9.30
2023-04-13T01:44:07.972Z,9.30
2023-04-13T01:46:38.368Z,9.20
2023-04-13T01:49:08.704Z,9.40
2023-04-13T01:51:38.445Z,9.30
2023-04-13T01:54:13.644Z,9.40
2023-04-13T01:56:42.735Z,9.40
2023-04-13T01:59:12.440Z,9.40
2023-04-13T02:01:43.245Z,9.30
2023-04-13T02:04:11.971Z,9.10
2023-04-13T02:06:40.976Z,9.20
2023-04-13T02:09:10.084Z,9.60
2023-04-13T02:11:39.151Z,9.20
2023-04-13T02:14:07.878Z,9.10
2023-04-13T02:16:36.642Z,9.20
2023-04-13T02:19:06.556Z,9.20
2023-04-13T02:21:36.310Z,9.20
2023-04-13T02:24:05.910Z,9.10
2023-04-13T02:26:34.861Z,9.20
2023-04-13T02:29:03.264Z,9.10
2023-04-13T02:31:31.935Z,9.20
2023-04-13T02:34:00.800Z,9.10
2023-04-13T02:36:31.172Z,9.30
2023-04-13T02:39:00.695Z,9.20
2023-04-13T02:41:29.670Z,9.20
2023-04-13T02:43:58.410Z,9.20
2023-04-13T02:46:29.364Z,9.30
2023-04-13T02:48:59.187Z,9.50
2023-04-13T02:51:28.002Z,9.70
2023-04-13T02:53:58.210Z,9.40
2023-04-13T02:56:28.785Z,9.50
2023-04-13T02:58:57.211Z,9.80
2023-04-13T03:01:25.547Z,9.80
2023-04-13T03:03:54.616Z,10.00
2023-04-13T03:06:24.250Z,9.40
2023-04-13T03:08:52.644Z,9.40
2023-04-13T03:11:23.934Z,9.50
2023-04-13T03:13:54.270Z,9.30
2023-04-13T03:16:22.993Z,9.60
2023-04-13T03:18:52.243Z,9.40
2023-04-13T03:21:20.774Z,9.60
2023-04-13T03:23:49.176Z,9.50
2023-04-13T03:26:17.542Z,9.50
2023-04-13T03:28:47.332Z,9.60
2023-04-13T03:31:15.845Z,9.80
2023-04-13T03:33:44.466Z,9.80
2023-04-13T03:36:13.556Z,10.20
2023-04-13T03:38:42.098Z,9.90
2023-04-13T03:41:10.515Z,10.00
2023-04-13T03:43:38.919Z,10.00
2023-04-13T03:46:09.760Z,10.10
2023-04-13T03:48:38.206Z,10.40
2023-04-13T03:51:06.839Z,10.50
2023-04-13T03:53:37.635Z,10.50
2023-04-13T03:56:07.147Z,10.10
2023-04-13T03:58:36.093Z,10.40
2023-04-13T04:01:04.549Z,10.30
2023-04-13T04:03:34.375Z,10.00
2023-04-13T04:06:02.862Z,9.80
2023-04-13T04:08:31.409Z,9.90
2023-04-13T04:10:59.848Z,10.10
2023-04-13T04:13:28.273Z,9.90
2023-04-13T04:15:56.866Z,9.80
2023-04-13T04:18:25.849Z,9.80
2023-04-13T04:20:55.399Z,9.80
2023-04-13T04:23:28.058Z,9.70
2023-04-13T04:25:59.459Z,9.60
2023-04-13T04:28:30.566Z,10.00
2023-04-13T04:31:01.231Z,10.00
2023-04-13T04:33:30.997Z,9.90
2023-04-13T04:36:01.675Z,9.80
2023-04-13T04:38:32.992Z,9.50
2023-04-13T04:41:02.083Z,9.80
2023-04-13T04:43:30.894Z,10.00
2023-04-13T04:45:59.451Z,10.20
2023-04-13T04:48:31.709Z,10.20
2023-04-13T04:51:01.555Z,10.00
2023-04-13T04:53:29.931Z,10.00
2023-04-13T04:55:58.659Z,9.80
2023-04-13T04:58:26.894Z,9.90
2023-04-13T05:00:57.171Z,9.70
2023-04-13T05:03:25.803Z,9.60
2023-04-13T05:05:54.317Z,9.60
2023-04-13T05:08:24.179Z,9.50
2023-04-13T05:10:52.944Z,9.80
2023-04-13T05:13:21.763Z,9.60
2023-04-13T05:15:50.239Z,9.50
2023-04-13T05:18:19.015Z,9.80
2023-04-13T05:20:47.398Z,10.20
2023-04-13T05:23:16.120Z,10.00
2023-04-13T05:25:45.920Z,10.00
2023-04-13T05:28:14.614Z,10.00
2023-04-13T05:30:43.034Z,10.20
2023-04-13T05:33:12.146Z,9.90
2023-04-13T05:35:40.595Z,10.00
2023-04-13T05:38:09.339Z,9.70
2023-04-13T05:40:37.824Z,10.00
2023-04-13T05:43:07.688Z,10.10
2023-04-13T05:45:36.097Z,9.80
2023-04-13T05:48:05.043Z,9.60
2023-04-13T05:50:33.487Z,9.60
2023-04-13T05:53:02.160Z,9.70
2023-04-13T05:55:30.627Z,10.30
2023-04-13T05:57:59.517Z,10.40
2023-04-13T06:00:29.703Z,10.30
2023-04-13T06:02:59.544Z,10.50
2023-04-13T06:05:28.926Z,10.40
2023-04-13T06:07:57.910Z,10.40
2023-04-13T06:10:26.720Z,9.70
2023-04-13T06:12:55.528Z,9.80
2023-04-13T06:15:24.048Z,9.60
2023-04-13T06:17:54.292Z,9.60
2023-04-13T06:20:22.845Z,10.20
2023-04-13T06:22:51.388Z,10.10
2023-04-13T06:25:19.911Z,10.40
2023-04-13T06:27:49.955Z,10.00
2023-04-13T06:30:19.002Z,10.00
2023-04-13T06:32:47.746Z,10.10
2023-04-13T06:35:17.536Z,10.00
2023-04-13T06:37:46.598Z,10.00
2023-04-13T06:40:16.025Z,10.20
2023-04-13T06:42:44.801Z,10.20
2023-04-13T06:45:13.989Z,10.20
2023-04-13T06:47:42.541Z,10.20
2023-04-13T06:50:13.549Z,10.20
2023-04-13T06:52:45.318Z,10.30
2023-04-13T06:55:14.281Z,10.30
2023-04-13T06:57:43.139Z,10.60
2023-04-13T07:00:28.170Z,10.30
2023-04-13T07:02:59.123Z,10.30
2023-04-13T07:05:27.737Z,10.40
2023-04-13T07:07:58.354Z,10.60
2023-04-13T07:10:27.351Z,10.50
2023-04-13T07:12:55.951Z,10.50
2023-04-13T07:15:24.410Z,10.30
2023-04-13T07:17:52.843Z,10.60
2023-04-13T07:20:21.243Z,10.70
2023-04-13T07:22:49.714Z,10.40
2023-04-13T07:25:19.614Z,10.00
2023-04-13T07:27:48.184Z,10.30
2023-04-13T07:30:17.078Z,10.30
2023-04-13T07:32:45.568Z,10.60
2023-04-13T07:35:14.190Z,10.60
2023-04-13T07:37:43.269Z,10.10
2023-04-13T07:40:13.224Z,10.60
2023-04-13T07:42:42.939Z,10.80
2023-04-13T07:45:11.832Z,11.40
2023-04-13T07:47:40.586Z,10.70
2023-04-13T07:50:09.728Z,10.80
2023-04-13T07:52:38.156Z,10.80
2023-04-13T07:55:07.402Z,10.90
2023-04-13T07:57:36.317Z,10.70
2023-04-13T08:00:07.079Z,10.40
2023-04-13T08:02:36.947Z,11.40
2023-04-13T08:05:05.943Z,10.80
2023-04-13T08:07:34.762Z,10.40
2023-04-13T08:10:04.199Z,11.00
2023-04-13T08:12:32.714Z,10.70
2023-04-13T08:15:01.150Z,11.10
2023-04-13T08:17:31.662Z,10.90
2023-04-13T08:20:00.153Z,10.60
2023-04-13T08:22:28.815Z,10.30
2023-04-13T08:24:57.496Z,10.70
2023-04-13T08:27:26.374Z,10.60
2023-04-13T08:30:00.735Z,10.50
2023-04-13T08:32:30.729Z,10.70
2023-04-13T08:34:59.633Z,10.70
2023-04-13T08:37:29.695Z,10.60
2023-04-13T08:40:00.550Z,10.70
2023-04-13T08:42:29.479Z,11.30
2023-04-13T08:45:00.393Z,11.10
2023-04-13T08:47:31.128Z,10.90
2023-04-13T08:50:00.758Z,11.10
2023-04-13T08:52:30.280Z,10.90
2023-04-13T08:55:01.025Z,10.70
2023-04-13T08:57:30.867Z,10.80
2023-04-13T09:00:00.257Z,10.90
2023-04-13T09:02:35.463Z,11.20
2023-04-13T09:05:13.948Z,10.90
2023-04-13T09:07:44.850Z,11.10
2023-04-13T09:10:16.430Z,11.30
2023-04-13T09:12:44.897Z,10.90
2023-04-13T09:15:15.797Z,11.10
2023-04-13T09:17:45.885Z,11.00
2023-04-13T09:20:17.227Z,10.70
2023-04-13T09:22:46.456Z,10.80
2023-04-13T09:25:25.050Z,11.50
2023-04-13T09:27:54.005Z,11.20
2023-04-13T09:30:23.651Z,11.50
2023-04-13T09:33:06.081Z,11.90
2023-04-13T09:35:35.755Z,11.40
2023-04-13T09:38:04.818Z,11.80
2023-04-13T09:40:33.465Z,11.00
2023-04-13T09:43:02.926Z,11.60
2023-04-13T09:45:41.389Z,11.80
2023-04-13T09:48:20.514Z,11.90
2023-04-13T09:50:59.584Z,12.10
2023-04-13T09:53:29.300Z,12.90
2023-04-13T09:56:01.357Z,12.30
2023-04-13T09:58:30.083Z,12.00
2023-04-13T10:01:00.597Z,11.80
2023-04-13T10:03:31.925Z,11.60
2023-04-13T10:06:01.488Z,12.10
2023-04-13T10:08:37.999Z,12.70
2023-04-13T10:11:14.765Z,11.80
2023-04-13T10:13:49.229Z,11.30
2023-04-13T10:16:44.517Z,11.60
2023-04-13T10:19:18.317Z,11.60
2023-04-13T10:21:48.710Z,11.50
2023-04-13T10:24:17.671Z,12.00
2023-04-13T10:26:46.760Z,11.80
2023-04-13T10:29:16.675Z,13.10
2023-04-13T10:31:47.756Z,14.70
2023-04-13T10:34:27.229Z,14.30
2023-04-13T10:36:58.468Z,13.70
2023-04-13T10:39:27.805Z,13.00
2023-04-13T10:42:03.600Z,12.00
2023-04-13T10:44:45.804Z,12.20
2023-04-13T10:47:15.537Z,11.80
2023-04-13T10:49:46.730Z,12.70
2023-04-13T10:52:15.868Z,12.10
2023-04-13T10:54:45.641Z,13.20
2023-04-13T10:57:15.089Z,12.90
2023-04-13T10:59:57.098Z,13.00
2023-04-13T11:02:27.184Z,12.30
2023-04-13T11:04:57.139Z,12.70
2023-04-13T11:07:26.855Z,13.10
2023-04-13T11:12:30.136Z,12.80
2023-04-13T11:14:58.581Z,12.60
2023-04-13T11:17:27.682Z,12.20
2023-04-13T11:19:58.618Z,12.20
2023-04-13T11:22:28.864Z,12.40
2023-04-13T11:25:08.924Z,12.50
2023-04-13T11:27:38.250Z,12.30
2023-04-13T11:30:09.416Z,12.30
2023-04-13T11:32:41.447Z,12.50
2023-04-13T11:35:13.924Z,12.20
2023-04-13T11:37:44.345Z,12.60
2023-04-13T11:40:15.086Z,13.20
2023-04-13T11:42:45.128Z,13.50
2023-04-13T11:45:15.838Z,14.70
2023-04-13T11:47:45.920Z,14.20
2023-04-13T11:50:17.678Z,13.30
2023-04-13T11:52:47.704Z,12.40
2023-04-13T11:55:23.224Z,13.30
2023-04-13T11:57:53.384Z,12.50
2023-04-13T12:00:26.166Z,14.00
2023-04-13T12:05:34.219Z,13.70
2023-04-13T12:08:05.068Z,13.00
2023-04-13T12:10:42.486Z,13.20
2023-04-13T12:13:22.505Z,13.10
2023-04-13T12:16:08.733Z,12.40
2023-04-13T12:18:57.317Z,12.50
2023-04-13T12:21:29.065Z,12.80
2023-04-13T12:23:59.273Z,12.90
2023-04-13T12:27:16.339Z,12.60
2023-04-13T12:29:24.202Z,12.30
2023-04-13T12:31:52.772Z,12.20
2023-04-13T12:34:22.655Z,12.20
2023-04-13T12:36:52.747Z,12.10
2023-04-13T12:39:21.374Z,12.10
2023-04-13T12:41:49.907Z,13.10
2023-04-13T12:44:18.241Z,13.70
2023-04-13T12:46:46.927Z,13.30
2023-04-13T12:49:16.027Z,13.00
2023-04-13T12:51:44.365Z,13.40
2023-04-13T12:54:14.665Z,13.80
2023-04-13T12:56:43.156Z,13.00
2023-04-13T12:59:11.613Z,12.80
2023-04-13T13:01:40.003Z,13.10
2023-04-13T13:04:08.603Z,13.20
2023-04-13T13:06:37.341Z,13.50
2023-04-13T13:09:07.568Z,12.90
2023-04-13T13:11:37.262Z,13.50
2023-04-13T13:14:05.784Z,13.60
2023-04-13T13:16:34.489Z,13.20
2023-04-13T13:19:03.290Z,13.60
2023-04-13T13:21:31.852Z,13.30
2023-04-13T13:24:00.412Z,13.20
2023-04-13T13:26:39.453Z,13.00
2023-04-13T13:29:19.514Z,13.30
2023-04-13T13:31:48.042Z,13.90
2023-04-13T13:34:16.865Z,13.70
2023-04-13T13:36:46.488Z,14.10
2023-04-13T13:39:14.968Z,13.60
2023-04-13T13:41:43.372Z,13.40
2023-04-13T13:44:11.827Z,13.40
2023-04-13T13:46:42.063Z,13.10
2023-04-13T13:49:11.854Z,13.30
2023-04-13T13:51:40.638Z,13.90
2023-04-13T13:54:09.088Z,13.50
2023-04-13T13:56:37.925Z,13.10
2023-04-13T13:59:06.331Z,13.20
2023-04-13T14:01:34.818Z,13.30
2023-04-13T14:04:04.688Z,13.00
2023-04-13T14:06:33.788Z,13.50
2023-04-13T14:09:02.720Z,13.20
2023-04-13T14:11:31.904Z,13.20
2023-04-13T14:14:11.007Z,13.40
2023-04-13T14:16:43.297Z,13.50
2023-04-13T14:19:13.108Z,12.90
2023-04-13T14:21:42.491Z,13.00
2023-04-13T14:24:10.998Z,13.10
2023-04-13T14:26:39.918Z,13.60
2023-04-13T14:29:08.953Z,13.30
2023-04-13T14:31:37.658Z,13.80
2023-04-13T14:34:06.210Z,13.60
2023-04-13T14:36:36.195Z,13.40
2023-04-13T14:39:05.305Z,14.00
2023-04-13T14:41:33.757Z,13.90
2023-04-13T14:44:02.109Z,14.20
2023-04-13T14:46:30.833Z,14.80
2023-04-13T14:48:59.777Z,15.10
2023-04-13T14:51:29.121Z,14.90
2023-04-13T14:53:58.823Z,14.10
2023-04-13T14:56:27.494Z,14.00
2023-04-13T14:58:56.079Z,13.30
2023-04-13T15:01:24.995Z,13.60
2023-04-13T15:03:54.527Z,13.40
2023-04-13T15:06:25.223Z,14.00
2023-04-13T15:08:54.263Z,14.00
2023-04-13T15:11:23.999Z,13.80
2023-04-13T15:13:52.705Z,14.00
2023-04-13T15:16:21.690Z,13.60
2023-04-13T15:18:50.288Z,13.10
2023-04-13T15:21:18.668Z,14.00
2023-04-13T15:23:47.188Z,13.20
2023-04-13T15:26:18.720Z,12.70
2023-04-13T15:28:48.497Z,13.10
2023-04-13T15:31:16.924Z,13.30
2023-04-13T15:33:45.394Z,13.30
2023-04-13T15:36:17.505Z,13.80
2023-04-13T15:38:45.994Z,13.20
2023-04-13T15:41:14.402Z,13.20
2023-04-13T15:43:44.094Z,13.10
2023-04-13T15:46:14.017Z,13.50
2023-04-13T15:48:42.508Z,13.30
2023-04-13T15:51:12.252Z,12.90
2023-04-13T15:53:40.913Z,13.20
2023-04-13T15:56:10.059Z,13.40
2023-04-13T15:58:38.559Z,13.40
2023-04-13T16:01:09.543Z,12.90
2023-04-13T16:03:40.649Z,13.60
2023-04-13T16:06:10.716Z,13.00
2023-04-13T16:08:40.116Z,12.70
2023-04-13T16:11:08.631Z,12.50
2023-04-13T16:16:14.495Z,12.20
2023-04-13T16:18:44.271Z,11.60
2023-04-13T16:21:13.227Z,11.50
2023-04-13T16:23:43.588Z,11.30
2023-04-13T16:26:12.240Z,11.30
2023-04-13T16:28:40.912Z,11.30
2023-04-13T16:31:11.146Z,11.50
2023-04-13T16:33:39.670Z,11.20
2023-04-13T16:36:10.452Z,11.30
2023-04-13T16:38:40.542Z,11.50
2023-04-13T16:41:09.414Z,11.40
2023-04-13T16:43:37.830Z,11.30
2023-04-13T16:46:07.082Z,11.10
2023-04-13T16:48:35.504Z,11.10
2023-04-13T16:51:04.602Z,11.10
2023-04-13T16:53:34.531Z,11.00
2023-04-13T16:56:02.917Z,10.80
2023-04-13T16:58:31.597Z,10.80
2023-04-13T17:01:00.077Z,11.20
2023-04-13T17:03:28.924Z,11.40
2023-04-13T17:05:57.473Z,11.50
2023-04-13T17:08:26.211Z,11.80
2023-04-13T17:10:55.729Z,11.80
2023-04-13T17:13:24.166Z,11.90
2023-04-13T17:15:52.607Z,11.80
2023-04-13T17:18:21.567Z,11.60
2023-04-13T17:20:55.140Z,11.90
2023-04-13T17:23:23.806Z,12.00
2023-04-13T17:25:53.746Z,12.30
2023-04-13T17:28:25.384Z,12.40
2023-04-13T17:30:53.996Z,12.60
2023-04-13T17:33:24.314Z,12.60
2023-04-13T17:35:54.777Z,12.40
2023-04-13T17:38:23.099Z,12.70
2023-04-13T17:40:52.272Z,12.80
2023-04-13T17:43:20.598Z,13.40
2023-04-13T17:45:50.279Z,12.80
2023-04-13T17:48:18.889Z,13.40
2023-04-13T17:50:47.394Z,12.90
2023-04-13T17:53:15.701Z,13.30
2023-04-13T17:55:44.143Z,12.90
2023-04-13T17:58:12.880Z,13.00
2023-04-13T18:00:41.345Z,12.70
2023-04-13T18:03:11.729Z,12.50
2023-04-13T18:05:45.479Z,12.40
2023-04-13T18:08:14.207Z,12.40
2023-04-13T18:10:42.608Z,12.30
2023-04-13T18:13:10.981Z,12.20
2023-04-13T18:15:39.119Z,12.10
2023-04-13T18:18:07.762Z,12.00
2023-04-13T18:20:37.622Z,11.90
2023-04-13T18:23:06.145Z,12.10
2023-04-13T18:25:34.574Z,12.10
2023-04-13T18:28:03.111Z,12.30
2023-04-13T18:30:31.645Z,12.60
2023-04-13T18:33:00.131Z,12.20
2023-04-13T18:35:28.848Z,12.20
2023-04-13T18:37:58.672Z,12.30
2023-04-13T18:40:27.235Z,12.30
2023-04-13T18:42:57.338Z,12.10
2023-04-13T18:45:25.527Z,12.00
2023-04-13T18:47:55.015Z,12.00
2023-04-13T18:50:23.533Z,11.90
2023-04-13T18:52:52.166Z,11.80
2023-04-13T18:55:23.203Z,12.00
2023-04-13T18:57:52.411Z,12.10
2023-04-13T19:00:21.333Z,11.90
2023-04-13T19:02:52.410Z,12.00
2023-04-13T19:05:21.274Z,11.80
2023-04-13T19:07:58.692Z,11.60
2023-04-13T19:10:29.262Z,11.40
2023-04-13T19:12:57.641Z,11.40
2023-04-13T19:15:26.392Z,11.40
2023-04-13T19:17:55.452Z,11.50
2023-04-13T19:20:25.225Z,11.50
2023-04-13T19:22:53.750Z,11.60
2023-04-13T19:25:22.352Z,11.40
2023-04-13T19:27:52.261Z,11.60
2023-04-13T19:30:20.850Z,11.40
2023-04-13T19:32:50.503Z,11.30
2023-04-13T19:35:19.193Z,11.20
2023-04-13T19:37:47.611Z,11.00
2023-04-13T19:40:16.148Z,11.40
2023-04-13T19:42:46.057Z,11.30
2023-04-13T19:45:16.640Z,11.00
2023-04-13T19:47:45.477Z,10.90
2023-04-13T19:50:15.973Z,10.90
2023-04-13T19:52:47.356Z,10.80
2023-04-13T19:55:16.031Z,10.70
2023-04-13T19:57:44.749Z,10.70
2023-04-13T20:00:20.397Z,10.60
2023-04-13T20:02:50.789Z,10.60
2023-04-13T20:05:21.219Z,10.70
2023-04-13T20:07:50.121Z,10.50
2023-04-13T20:10:18.650Z,10.50
2023-04-13T20:12:47.106Z,10.30
2023-04-13T20:15:17.090Z,10.30
2023-04-13T20:17:47.842Z,10.10
2023-04-13T20:20:17.954Z,10.10
2023-04-13T20:22:46.341Z,10.10
2023-04-13T20:25:14.713Z,10.00
2023-04-13T20:27:44.049Z,10.20
2023-04-13T20:30:12.986Z,10.20
2023-04-13T20:32:42.886Z,10.00
2023-04-13T20:35:11.696Z,9.80
2023-04-13T20:37:40.417Z,9.80
2023-04-13T20:40:11.529Z,9.80
2023-04-13T20:42:42.028Z,9.70
2023-04-13T20:45:12.728Z,9.70
2023-04-13T20:47:43.268Z,9.60
2023-04-13T20:50:13.214Z,9.70
2023-04-13T20:52:42.765Z,9.60
2023-04-13T20:55:11.696Z,9.60
2023-04-13T20:57:42.239Z,9.40
2023-04-13T21:00:15.375Z,9.30
2023-04-13T21:02:47.005Z,9.30
2023-04-13T21:05:15.793Z,9.30
2023-04-13T21:07:45.313Z,9.30
2023-04-13T21:10:15.658Z,9.10
2023-04-13T21:12:44.177Z,9.10
2023-04-13T21:15:13.277Z,9.00
2023-04-13T21:17:42.071Z,9.00
2023-04-13T21:20:13.432Z,8.80
2023-04-13T21:22:41.788Z,8.80
2023-04-13T21:25:10.591Z,8.30
2023-04-13T21:27:39.321Z,8.20
2023-04-13T21:30:08.673Z,8.10
2023-04-13T21:32:36.962Z,8.00
2023-04-13T21:35:06.210Z,8.80
2023-04-13T21:37:36.083Z,8.80
2023-04-13T21:40:04.699Z,8.80
2023-04-13T21:42:33.055Z,8.90
2023-04-13T21:45:01.570Z,8.80
2023-04-13T21:47:30.383Z,8.80
2023-04-13T21:49:58.862Z,8.80
2023-04-13T21:52:27.264Z,8.80
2023-04-13T21:54:59.889Z,8.60
2023-04-13T21:57:28.618Z,8.60
2023-04-13T21:59:57.445Z,8.70
2023-04-13T22:02:26.263Z,8.70
2023-04-13T22:04:54.915Z,8.80
2023-04-13T22:07:35.207Z,9.20
2023-04-13T22:10:12.251Z,9.00
2023-04-13T22:12:40.767Z,9.10
2023-04-13T22:15:09.745Z,9.30
2023-04-13T22:17:38.368Z,9.20
2023-04-13T22:20:07.444Z,9.20
2023-04-13T22:22:35.883Z,9.80
2023-04-13T22:25:04.421Z,9.40
2023-04-13T22:27:34.464Z,9.70
2023-04-13T22:30:03.297Z,10.30
2023-04-13T22:32:32.041Z,10.70
2023-04-13T22:35:00.821Z,10.70
2023-04-13T22:37:33.022Z,10.10
2023-04-13T22:40:02.307Z,9.80
2023-04-13T22:42:30.810Z,10.30
2023-04-13T22:45:00.582Z,9.90
2023-04-13T22:47:29.345Z,9.70
2023-04-13T22:50:00.018Z,9.70
2023-04-13T22:52:28.873Z,9.70
2023-04-13T22:54:58.225Z,9.70
2023-04-13T22:57:26.872Z,9.40
2023-04-13T22:59:55.474Z,9.60
2023-04-13T23:02:25.486Z,9.40
2023-04-13T23:04:53.967Z,9.20
2023-04-13T23:07:22.669Z,9.00
2023-04-13T23:09:53.051Z,8.80
2023-04-13T23:12:21.666Z,8.70
2023-04-13T23:14:50.170Z,8.60
2023-04-13T23:17:18.967Z,8.70
2023-04-13T23:19:48.794Z,8.50
2023-04-13T23:22:17.361Z,8.50
2023-04-13T23:24:45.790Z,8.70
2023-04-13T23:27:14.482Z,8.60
2023-04-13T23:29:45.619Z,8.50
2023-04-13T23:32:14.295Z,8.50
2023-04-13T23:34:42.579Z,8.40
2023-04-13T23:37:12.603Z,8.40
2023-04-13T23:39:40.943Z,8.40
2023-04-13T23:42:09.583Z,8.40
2023-04-13T23:44:38.034Z,8.30
2023-04-13T23:47:07.229Z,8.20
2023-04-13T23:49:35.703Z,8.40
2023-04-13T23:52:04.344Z,8.70
2023-04-13T23:54:33.989Z,8.60
2023-04-13T23:57:03.287Z,8.40
2023-04-13T23:59:31.820Z,8.50
